Minnewaukan, North Dakota
Current Conditions -  °F | °C
As of 1:55 AM on Monday 22 Dec 2014 (Local Time) from KDVL Reporting Station
Overcast Overcast  
Wind Chill: 22°   Ceiling: 500
Heat Index: 30°   Visibility: 5mi
Dew Point: 25°   Wind: 9mph
Humidity: 80%   Direction: 130°SE
Pressure: 29.47"   Gusts: NA
Location:  48.07°N, 99.25°W
Report Text: KDVL 220755Z AUTO 13008KT 5SM OVC005 M01/M04 A2947 RMK AO1
Loading
Personal Weather Stations






























Interactive Weather Map New forecast layout! Learn more

10-Day Weather Forecast

Advertisements
Track Severe Weather on mobile